Time;durP1;ratioP1;P1;durP2;ratioP2;P2;SDS_P1;SDS_P2;PMS_P1;PMS_P2;Temp;Humidity;BMP_temperature;BMP_pressure;BME280_temperature;BME280_humidity;BME280_pressure;Samples;Min_cycle;Max_cycle;Signal;HPM_P1;HPM_P2
2024/04/20 00:01:07;;;;;;;20.63;19.33;;;5.00;85.70;;;;;;5501067;26;20244;-83
2024/04/20 00:03:32;;;;;;;20.60;18.97;;;5.00;85.50;;;;;;5533109;26;20226;-85
2024/04/20 00:06:05;;;;;;;21.07;19.87;;;5.00;85.50;;;;;;5533451;26;20214;-85
2024/04/20 00:08:31;;;;;;;20.87;19.57;;;5.00;85.50;;;;;;5533104;26;20717;-85
2024/04/20 00:11:25;;;;;;;23.77;21.87;;;4.90;85.40;;;;;;5533464;26;20821;-85
2024/04/20 00:13:52;;;;;;;20.70;19.50;;;4.90;85.30;;;;;;5532803;26;20230;-85
2024/04/20 00:16:18;;;;;;;20.63;19.33;;;4.80;85.40;;;;;;5533465;26;20206;-85
2024/04/20 00:18:44;;;;;;;19.97;18.77;;;4.80;85.30;;;;;;5532543;26;20605;-85
2024/04/20 00:21:09;;;;;;;20.60;19.40;;;4.80;85.40;;;;;;5532879;26;20260;-85
2024/04/20 00:23:35;;;;;;;20.67;19.47;;;4.80;85.40;;;;;;5533004;26;20557;-86
2024/04/20 00:26:06;;;;;;;21.10;19.80;;;4.80;85.50;;;;;;5533162;26;20757;-85
2024/04/20 00:28:35;;;;;;;21.90;20.33;;;4.80;85.40;;;;;;5533528;26;20211;-85
2024/04/20 00:31:01;;;;;;;20.63;19.43;;;4.80;85.60;;;;;;5533258;26;20210;-85
2024/04/20 00:33:28;;;;;;;20.30;18.90;;;4.80;85.50;;;;;;5532843;26;20248;-85
2024/04/20 00:35:53;;;;;;;20.70;19.17;;;4.70;85.40;;;;;;5533535;26;20691;-85
2024/04/20 00:38:19;;;;;;;20.87;19.57;;;4.70;85.50;;;;;;5533322;26;20206;-84
2024/04/20 00:40:58;;;;;;;19.67;18.47;;;4.70;85.50;;;;;;5533640;26;20260;-85
2024/04/20 00:43:23;;;;;;;20.00;18.77;;;4.70;85.50;;;;;;5532937;26;20218;-85
2024/04/20 00:45:52;;;;;;;21.57;20.23;;;4.70;85.50;;;;;;5533464;26;20214;-85
2024/04/20 00:48:21;;;;;;;22.23;20.83;;;4.70;85.30;;;;;;5532948;26;20218;-84
2024/04/20 00:50:47;;;;;;;22.53;21.13;;;4.70;85.30;;;;;;5533372;26;20211;-83
2024/04/20 00:53:14;;;;;;;22.87;21.27;;;4.70;84.90;;;;;;5500048;26;20241;-85
2024/04/20 00:55:41;;;;;;;22.77;21.37;;;4.70;84.90;;;;;;5500293;26;20257;-85
2024/04/20 00:58:09;;;;;;;20.27;19.07;;;4.70;84.80;;;;;;5532565;26;20218;-85
2024/04/20 01:00:40;;;;;;;22.13;20.83;;;4.70;84.70;;;;;;5532885;26;20251;-85
2024/04/20 01:03:05;;;;;;;22.17;20.77;;;4.70;84.50;;;;;;5500299;26;20298;-84
2024/04/20 01:05:32;;;;;;;22.60;21.07;;;4.70;84.40;;;;;;5500357;26;20230;-85
2024/04/20 01:07:58;;;;;;;22.30;20.87;;;4.70;84.40;;;;;;5532518;26;20214;-85
2024/04/20 01:10:23;;;;;;;22.50;21.13;;;4.70;84.40;;;;;;5532186;26;20667;-85
2024/04/20 01:12:49;;;;;;;23.73;22.33;;;4.80;84.00;;;;;;5532408;26;20607;-84
2024/04/20 01:15:14;;;;;;;18.33;17.00;;;4.70;84.20;;;;;;5532604;26;20256;-86
2024/04/20 01:17:40;;;;;;;10.63;9.93;;;4.80;84.10;;;;;;5532728;26;20648;-86
2024/04/20 01:20:13;;;;;;;10.40;9.80;;;4.80;83.90;;;;;;5532298;26;20354;-85
2024/04/20 01:22:40;;;;;;;10.73;10.03;;;4.70;84.00;;;;;;5532337;26;20181;-86
2024/04/20 01:25:06;;;;;;;11.00;10.10;;;4.70;84.40;;;;;;5499245;26;20724;-85
2024/04/20 01:27:31;;;;;;;11.87;10.97;;;4.70;84.40;;;;;;5532796;26;20291;-86
2024/04/20 01:29:57;;;;;;;10.57;9.87;;;4.80;84.20;;;;;;5533245;26;20210;-85
2024/04/20 01:32:22;;;;;;;10.90;10.20;;;4.80;84.20;;;;;;5502912;26;20222;-86
2024/04/20 01:34:48;;;;;;;11.53;10.60;;;4.70;84.10;;;;;;5535683;26;20218;-85
2024/04/20 01:37:13;;;;;;;11.23;10.53;;;4.50;84.20;;;;;;5536095;26;20294;-85
2024/04/20 01:39:39;;;;;;;10.83;10.13;;;4.50;84.50;;;;;;5502743;26;20305;-85
2024/04/20 01:42:04;;;;;;;11.70;10.90;;;4.60;84.60;;;;;;5535202;26;20218;-85
2024/04/20 01:44:30;;;;;;;10.60;9.90;;;4.50;84.50;;;;;;5535813;26;20268;-86
2024/04/20 01:46:55;;;;;;;11.27;10.37;;;4.50;84.60;;;;;;5535954;26;20214;-86
2024/04/20 01:49:21;;;;;;;11.60;10.60;;;4.40;84.50;;;;;;5536072;26;20214;-85
2024/04/20 01:51:47;;;;;;;11.73;10.83;;;4.50;84.60;;;;;;5535344;26;20221;-85
2024/04/20 01:54:12;;;;;;;11.33;10.53;;;4.50;84.00;;;;;;5535621;26;20256;-86
2024/04/20 01:56:38;;;;;;;10.47;9.77;;;4.30;84.00;;;;;;5536156;26;20209;-86
2024/04/20 01:59:03;;;;;;;10.57;9.77;;;4.30;83.90;;;;;;5535581;26;20266;-85
2024/04/20 02:01:31;;;;;;;10.97;10.30;;;4.30;83.90;;;;;;5535730;26;20213;-86
2024/04/20 02:03:56;;;;;;;11.33;10.63;;;4.20;83.90;;;;;;5536460;26;20249;-86
2024/04/20 02:06:22;;;;;;;11.67;10.97;;;4.10;84.10;;;;;;5535656;26;20701;-86
2024/04/20 02:08:47;;;;;;;12.43;11.53;;;4.10;84.20;;;;;;5535460;26;20256;-86
2024/04/20 02:11:13;;;;;;;11.23;10.53;;;4.10;84.20;;;;;;5536252;26;20294;-86
2024/04/20 02:13:38;;;;;;;11.53;10.73;;;4.10;84.20;;;;;;5535691;26;20234;-86
2024/04/20 02:16:05;;;;;;;11.27;10.57;;;4.10;84.00;;;;;;5535742;26;20253;-86
2024/04/20 02:18:30;;;;;;;11.83;10.97;;;4.00;84.00;;;;;;5536139;26;20210;-86
2024/04/20 02:20:56;;;;;;;23.10;21.70;;;3.90;84.10;;;;;;5536468;26;20290;-86
2024/04/20 02:23:22;;;;;;;26.07;24.00;;;3.90;84.20;;;;;;5535843;26;20248;-86
2024/04/20 02:25:48;;;;;;;21.87;20.57;;;3.90;84.10;;;;;;5503806;26;20225;-86
2024/04/20 02:28:13;;;;;;;23.83;22.37;;;3.90;84.10;;;;;;5536086;26;20266;-86
2024/04/20 02:30:39;;;;;;;26.53;24.30;;;3.90;84.00;;;;;;5535965;26;20210;-86
2024/04/20 02:33:04;;;;;;;25.07;23.57;;;3.90;83.80;;;;;;5536223;26;20222;-86
2024/04/20 02:35:30;;;;;;;11.97;11.27;;;3.80;83.80;;;;;;5503989;26;20343;-86
2024/04/20 02:37:55;;;;;;;12.20;11.40;;;3.80;83.70;;;;;;5535561;26;20317;-82
2024/04/20 02:40:21;;;;;;;25.77;24.17;;;3.80;83.60;;;;;;5529340;26;20229;-83
2024/04/20 02:42:47;;;;;;;25.57;24.00;;;3.70;83.60;;;;;;5530012;26;20206;-83
2024/04/20 02:45:18;;;;;;;25.97;24.27;;;3.60;83.70;;;;;;5529642;26;20329;-83
2024/04/20 02:47:44;;;;;;;25.83;24.23;;;3.50;83.80;;;;;;5529121;26;20264;-83
2024/04/20 02:50:09;;;;;;;26.00;24.40;;;3.50;84.00;;;;;;5529502;26;20213;-82
2024/04/20 02:52:35;;;;;;;25.47;23.87;;;3.50;84.20;;;;;;5529825;26;20210;-83
2024/04/20 02:55:00;;;;;;;27.13;25.33;;;3.50;84.00;;;;;;5529526;26;20310;-83
2024/04/20 02:57:26;;;;;;;23.70;22.20;;;3.50;83.90;;;;;;5529739;26;20646;-82
2024/04/20 02:59:52;;;;;;;26.10;24.50;;;3.50;84.00;;;;;;5529122;26;20213;-82
2024/04/20 03:02:17;;;;;;;25.73;24.10;;;3.50;83.90;;;;;;5528971;26;20660;-82
2024/04/20 03:04:43;;;;;;;26.03;24.10;;;3.40;83.80;;;;;;5529157;26;20682;-82
2024/04/20 03:07:10;;;;;;;27.37;25.67;;;3.30;83.90;;;;;;5529504;26;20322;-83
2024/04/20 03:09:36;;;;;;;28.00;26.10;;;3.30;84.10;;;;;;5529477;26;20256;-82
2024/04/20 03:12:01;;;;;;;27.43;25.83;;;3.40;84.10;;;;;;5529969;26;20209;-82
2024/04/20 03:14:27;;;;;;;26.87;25.27;;;3.40;83.90;;;;;;5496697;26;20233;-82
2024/04/20 03:16:52;;;;;;;24.63;23.13;;;3.40;83.90;;;;;;5528568;26;20282;-82
2024/04/20 03:19:18;;;;;;;25.60;23.67;;;3.30;83.90;;;;;;5528914;26;20225;-82
2024/04/20 03:21:43;;;;;;;26.57;24.97;;;3.40;83.60;;;;;;5528922;26;20213;-82
2024/04/20 03:24:09;;;;;;;24.60;23.10;;;3.40;83.50;;;;;;5528731;26;20218;-83
2024/04/20 03:26:35;;;;;;;26.63;24.83;;;3.30;83.30;;;;;;5528822;26;20320;-83
2024/04/20 03:29:00;;;;;;;25.40;23.87;;;3.30;83.50;;;;;;5529065;26;20224;-82
2024/04/20 03:31:26;;;;;;;26.07;24.47;;;3.40;83.50;;;;;;5528500;26;20259;-82
2024/04/20 03:33:57;;;;;;;25.60;24.00;;;3.30;83.40;;;;;;5528765;26;20648;-82
2024/04/20 03:36:23;;;;;;;25.70;24.10;;;3.20;83.30;;;;;;5528687;26;20642;-82
2024/04/20 03:38:48;;;;;;;26.20;24.60;;;3.20;83.40;;;;;;5528620;26;20260;-82
2024/04/20 03:41:14;;;;;;;26.63;24.83;;;3.30;83.50;;;;;;5528631;26;20222;-82
2024/04/20 03:43:40;;;;;;;25.13;23.57;;;3.20;83.40;;;;;;5528592;26;20247;-82
2024/04/20 03:46:05;;;;;;;23.20;21.70;;;3.10;83.40;;;;;;5495859;26;20649;-82
2024/04/20 03:48:32;;;;;;;24.17;22.73;;;3.10;83.70;;;;;;5528548;26;20337;-82
2024/04/20 03:50:59;;;;;;;24.13;22.63;;;3.10;83.90;;;;;;5528985;26;20269;-83
2024/04/20 03:53:25;;;;;;;24.73;23.23;;;3.10;83.70;;;;;;5494658;26;20683;-82
2024/04/20 03:55:51;;;;;;;25.90;24.30;;;3.00;83.90;;;;;;5528643;26;20225;-82
2024/04/20 03:58:17;;;;;;;23.83;22.33;;;3.10;83.90;;;;;;5528586;26;20221;-83
2024/04/20 04:00:42;;;;;;;23.67;22.17;;;3.00;83.80;;;;;;5528856;26;20590;-82
2024/04/20 04:03:14;;;;;;;24.70;23.13;;;3.00;83.80;;;;;;5528424;26;20220;-82
2024/04/20 04:05:40;;;;;;;24.93;23.33;;;3.10;83.80;;;;;;5528618;26;20183;-83
2024/04/20 04:08:06;;;;;;;26.93;25.27;;;3.00;83.80;;;;;;5528065;26;20321;-83
2024/04/20 04:10:32;;;;;;;23.47;22.07;;;3.00;83.80;;;;;;5528067;26;20376;-82
2024/04/20 04:12:59;;;;;;;26.70;25.00;;;3.00;83.90;;;;;;5528006;26;20260;-82
2024/04/20 04:15:25;;;;;;;14.40;13.20;;;3.00;83.90;;;;;;5528130;26;20605;-83
2024/04/20 04:17:50;;;;;;;16.27;15.00;;;3.00;83.90;;;;;;5528225;26;20210;-81
2024/04/20 04:20:16;;;;;;;36.33;33.63;;;2.90;83.90;;;;;;5528606;26;20631;-82
2024/04/20 04:22:41;;;;;;;32.07;29.67;;;2.90;83.80;;;;;;5528385;26;20672;-82
2024/04/20 04:25:07;;;;;;;31.87;29.57;;;2.90;83.90;;;;;;5528325;26;20224;-82
2024/04/20 04:27:32;;;;;;;31.37;29.07;;;2.90;83.90;;;;;;5528348;26;20213;-83
2024/04/20 04:29:58;;;;;;;29.67;27.50;;;3.00;83.90;;;;;;5528026;26;20214;-82
2024/04/20 04:32:24;;;;;;;28.00;26.17;;;3.00;83.90;;;;;;5527763;26;20257;-82
2024/04/20 04:34:50;;;;;;;27.57;25.73;;;2.90;83.70;;;;;;5494857;26;20280;-82
2024/04/20 04:37:16;;;;;;;27.47;25.57;;;2.90;84.10;;;;;;5495288;26;20685;-82
2024/04/20 04:39:41;;;;;;;28.80;27.00;;;2.90;84.00;;;;;;5527431;26;20272;-82
2024/04/20 04:42:07;;;;;;;27.23;25.43;;;2.90;84.00;;;;;;5527700;26;20230;-82
2024/04/20 04:44:33;;;;;;;23.33;21.83;;;2.90;84.00;;;;;;5527994;26;20228;-82
2024/04/20 04:46:58;;;;;;;25.97;24.23;;;3.00;84.00;;;;;;5527733;26;20209;-82
2024/04/20 04:49:24;;;;;;;15.47;14.27;;;3.20;84.10;;;;;;5527672;26;20224;-83
2024/04/20 04:51:49;;;;;;;12.97;12.17;;;3.20;84.00;;;;;;5527356;26;20568;-82
2024/04/20 04:54:15;;;;;;;13.43;12.33;;;3.30;84.00;;;;;;5527386;26;20229;-82
2024/04/20 04:56:43;;;;;;;12.63;11.73;;;3.40;83.80;;;;;;5495008;26;20260;-82
2024/04/20 04:59:08;;;;;;;11.97;11.17;;;3.60;83.70;;;;;;5527495;26;20210;-82
2024/04/20 05:01:37;;;;;;;12.80;11.57;;;3.50;83.50;;;;;;5494674;26;20302;-82
2024/04/20 05:04:03;;;;;;;12.90;12.00;;;3.70;83.60;;;;;;5526689;26;20272;-85
2024/04/20 05:06:29;;;;;;;13.03;12.13;;;3.70;83.30;;;;;;5527703;26;20256;-82
2024/04/20 05:08:54;;;;;;;12.23;11.40;;;3.70;83.10;;;;;;5494821;26;20213;-82
2024/04/20 05:11:20;;;;;;;13.37;12.03;;;3.60;82.90;;;;;;5527646;26;20205;-82
2024/04/20 05:13:45;;;;;;;12.77;11.87;;;3.70;83.10;;;;;;5527192;26;20309;-82
2024/04/20 05:16:11;;;;;;;13.67;12.67;;;3.70;82.90;;;;;;5494467;26;20305;-82
2024/04/20 05:18:36;;;;;;;13.23;12.33;;;3.70;83.00;;;;;;5527704;26;20245;-82
2024/04/20 05:21:02;;;;;;;13.53;12.43;;;3.50;82.90;;;;;;5527142;26;20252;-82
2024/04/20 05:23:27;;;;;;;13.30;12.43;;;3.50;83.10;;;;;;5527249;26;20230;-83
2024/04/20 05:25:53;;;;;;;14.00;12.93;;;3.50;83.30;;;;;;5527152;26;20710;-82
2024/04/20 05:28:19;;;;;;;13.43;12.43;;;3.40;83.50;;;;;;5527241;26;20218;-82
2024/04/20 05:30:45;;;;;;;12.00;11.20;;;3.50;83.90;;;;;;5526855;26;20214;-82
2024/04/20 05:33:12;;;;;;;11.87;11.13;;;3.40;84.00;;;;;;5528235;26;20226;-83
2024/04/20 05:35:37;;;;;;;12.00;11.20;;;3.40;84.60;;;;;;5528206;26;20560;-83
2024/04/20 05:38:03;;;;;;;11.63;10.87;;;3.40;85.00;;;;;;5527371;26;20248;-82
2024/04/20 05:40:29;;;;;;;11.97;11.00;;;3.40;85.30;;;;;;5527772;26;20226;-81
2024/04/20 05:42:55;;;;;;;12.17;11.00;;;3.50;85.20;;;;;;5527517;26;20614;-83
2024/04/20 05:45:25;;;;;;;11.27;10.47;;;3.60;85.10;;;;;;5527715;26;20213;-82
2024/04/20 05:47:50;;;;;;;11.97;11.17;;;3.60;85.00;;;;;;5527775;26;20292;-82
2024/04/20 05:50:16;;;;;;;11.00;10.23;;;3.70;85.30;;;;;;5528240;26;20219;-82
2024/04/20 05:52:42;;;;;;;10.90;10.10;;;4.00;85.50;;;;;;5495734;26;20214;-82
2024/04/20 05:55:08;;;;;;;10.63;9.83;;;4.00;85.30;;;;;;5528013;26;20225;-83
2024/04/20 05:57:33;;;;;;;10.70;10.00;;;4.00;85.40;;;;;;5494774;26;20303;-82
2024/04/20 05:59:59;;;;;;;10.00;9.20;;;4.00;85.50;;;;;;5526378;26;20222;-82
2024/04/20 06:02:27;;;;;;;9.77;9.17;;;4.00;85.50;;;;;;5526331;26;20226;-83
2024/04/20 06:04:55;;;;;;;10.63;9.93;;;3.90;85.50;;;;;;5526852;26;20225;-83
2024/04/20 06:07:21;;;;;;;11.03;10.20;;;3.90;85.70;;;;;;5526365;26;20256;-82
2024/04/20 06:09:46;;;;;;;10.93;10.03;;;4.00;85.90;;;;;;5526249;26;20218;-83
2024/04/20 06:12:12;;;;;;;9.93;9.23;;;4.00;86.10;;;;;;5526291;26;20241;-83
2024/04/20 06:14:38;;;;;;;9.90;9.13;;;4.00;86.30;;;;;;5527140;26;20226;-84
2024/04/20 06:17:03;;;;;;;9.40;8.80;;;4.10;86.50;;;;;;5529963;26;20207;-82
2024/04/20 06:19:29;;;;;;;9.57;8.87;;;4.20;86.70;;;;;;5497429;26;20224;-81
2024/04/20 06:21:54;;;;;;;10.47;9.77;;;4.30;86.70;;;;;;5530835;26;20210;-82
2024/04/20 06:24:20;;;;;;;16.17;15.17;;;4.40;86.70;;;;;;5531580;26;20229;-84
2024/04/20 06:26:46;;;;;;;15.20;14.13;;;4.50;86.50;;;;;;5531623;26;20226;-83
2024/04/20 06:29:12;;;;;;;16.47;15.37;;;4.50;86.60;;;;;;5529871;26;20210;-84
2024/04/20 06:31:37;;;;;;;16.30;15.20;;;4.50;86.70;;;;;;5529490;26;20218;-83
2024/04/20 06:34:03;;;;;;;15.43;13.97;;;4.60;86.60;;;;;;5496616;26;20237;-83
2024/04/20 06:36:29;;;;;;;15.57;14.50;;;4.70;86.80;;;;;;5497001;26;20214;-83
2024/04/20 06:38:55;;;;;;;16.97;15.67;;;5.00;87.00;;;;;;5529866;26;20217;-83
2024/04/20 06:41:20;;;;;;;17.03;15.83;;;5.10;86.50;;;;;;5530274;26;20819;-83
2024/04/20 06:43:46;;;;;;;16.70;15.50;;;5.20;86.30;;;;;;5529720;26;20222;-84
2024/04/20 06:46:11;;;;;;;16.97;15.77;;;5.10;86.10;;;;;;5531456;26;20215;-82
2024/04/20 06:48:37;;;;;;;16.17;15.07;;;5.10;86.20;;;;;;5497118;26;20218;-83
2024/04/20 06:51:03;;;;;;;18.07;16.80;;;5.10;86.30;;;;;;5531829;26;20252;-84
2024/04/20 06:53:28;;;;;;;17.90;16.70;;;5.10;86.40;;;;;;5531789;26;20738;-83
2024/04/20 06:56:01;;;;;;;16.93;15.73;;;5.20;86.90;;;;;;5531352;26;20245;-83
2024/04/20 06:58:26;;;;;;;15.97;14.47;;;5.40;87.00;;;;;;5531436;26;20260;-83
2024/04/20 07:00:52;;;;;;;17.63;16.03;;;5.40;86.90;;;;;;5531770;26;20219;-83
2024/04/20 07:03:19;;;;;;;17.17;16.00;;;5.50;87.10;;;;;;5531400;26;20221;-85
2024/04/20 07:05:52;;;;;;;16.43;15.33;;;5.70;87.10;;;;;;5531790;26;20561;-82
2024/04/20 07:08:18;;;;;;;17.07;15.53;;;5.80;87.00;;;;;;5531876;26;20289;-82
2024/04/20 07:10:52;;;;;;;17.27;15.97;;;5.80;86.60;;;;;;5498410;26;20226;-82
2024/04/20 07:13:18;;;;;;;16.97;15.57;;;5.90;86.70;;;;;;5531923;26;20708;-83
2024/04/20 07:15:52;;;;;;;15.77;14.57;;;5.90;86.60;;;;;;5498960;26;20218;-83
2024/04/20 07:18:18;;;;;;;16.93;15.73;;;6.00;86.80;;;;;;5531168;26;20198;-82
2024/04/20 07:20:43;;;;;;;16.77;15.57;;;6.20;86.90;;;;;;5498521;26;20244;-82
2024/04/20 07:23:10;;;;;;;16.83;15.43;;;6.20;86.80;;;;;;5530615;26;20222;-82
2024/04/20 07:25:36;;;;;;;16.83;15.60;;;6.30;87.00;;;;;;5531017;26;20210;-84
2024/04/20 07:28:01;;;;;;;14.37;13.47;;;6.50;86.90;;;;;;5531481;26;20261;-82
2024/04/20 07:30:27;;;;;;;16.97;15.87;;;6.50;86.90;;;;;;5531013;26;20248;-82
2024/04/20 07:32:52;;;;;;;17.40;15.87;;;6.70;86.50;;;;;;5531216;26;20226;-83
2024/04/20 07:35:18;;;;;;;16.97;15.87;;;6.70;86.30;;;;;;5530408;26;20210;-82
2024/04/20 07:37:43;;;;;;;18.23;16.77;;;6.60;85.90;;;;;;5530497;26;20570;-84
2024/04/20 07:40:09;;;;;;;16.30;15.20;;;6.50;85.50;;;;;;5529818;26;20757;-86
2024/04/20 07:42:35;;;;;;;17.73;16.33;;;6.60;85.70;;;;;;5530176;26;20261;-81
2024/04/20 07:45:00;;;;;;;16.87;15.77;;;6.30;84.90;;;;;;5530256;26;20222;-82
2024/04/20 07:47:26;;;;;;;16.93;15.67;;;6.30;85.40;;;;;;5530831;26;20718;-82
2024/04/20 07:49:52;;;;;;;15.40;14.13;;;6.40;85.50;;;;;;5530791;26;20214;-82
2024/04/20 07:52:18;;;;;;;9.23;8.53;;;6.70;85.90;;;;;;5531340;26;20256;-85
2024/04/20 07:54:43;;;;;;;10.50;9.70;;;6.90;86.10;;;;;;5498392;26;20709;-83
2024/04/20 07:57:09;;;;;;;10.67;9.97;;;7.10;85.80;;;;;;5531857;26;20252;-82
2024/04/20 07:59:35;;;;;;;10.80;10.07;;;7.20;85.00;;;;;;5531051;26;20210;-83
2024/04/20 08:02:01;;;;;;;11.33;10.53;;;7.20;84.80;;;;;;5531803;26;20282;-82
2024/04/20 08:04:27;;;;;;;11.93;11.13;;;7.10;84.10;;;;;;5530958;26;20238;-82
2024/04/20 08:06:53;;;;;;;12.77;11.70;;;7.20;84.20;;;;;;5531970;26;20321;-82
2024/04/20 08:09:18;;;;;;;12.97;12.07;;;7.30;84.20;;;;;;5531393;26;20753;-83
2024/04/20 08:11:44;;;;;;;12.53;11.63;;;7.40;83.90;;;;;;5529784;26;20245;-84
2024/04/20 08:14:10;;;;;;;12.93;12.03;;;7.50;83.60;;;;;;5529910;26;20313;-85
2024/04/20 08:16:35;;;;;;;13.73;12.63;;;7.60;83.20;;;;;;5531255;26;20210;-84
2024/04/20 08:19:02;;;;;;;13.50;12.30;;;7.50;83.20;;;;;;5498436;26;20694;-82
2024/04/20 08:21:28;;;;;;;13.37;12.37;;;7.60;83.50;;;;;;5531507;26;20706;-82
2024/04/20 08:23:53;;;;;;;13.37;12.37;;;7.70;82.60;;;;;;5499374;26;20272;-82
2024/04/20 08:26:19;;;;;;;12.97;12.17;;;7.80;82.00;;;;;;5498777;26;20256;-82
2024/04/20 08:28:44;;;;;;;13.40;12.30;;;7.60;82.30;;;;;;5531295;26;20698;-85
2024/04/20 08:31:10;;;;;;;12.80;11.90;;;7.70;82.60;;;;;;5530367;26;20257;-82
2024/04/20 08:33:35;;;;;;;13.63;12.70;;;7.80;82.50;;;;;;5498806;26;20264;-83
2024/04/20 08:36:01;;;;;;;14.43;13.33;;;7.80;82.10;;;;;;5530924;26;20251;-82
2024/04/20 08:38:26;;;;;;;14.27;13.10;;;7.70;82.20;;;;;;5531283;26;20249;-82
2024/04/20 08:40:59;;;;;;;13.27;12.27;;;7.80;82.60;;;;;;5529314;26;20222;-84
2024/04/20 08:43:28;;;;;;;14.80;13.80;;;7.90;82.40;;;;;;5530220;26;20262;-83
2024/04/20 08:45:56;;;;;;;14.00;13.10;;;8.00;80.00;;;;;;5498805;26;20248;-82
2024/04/20 08:48:26;;;;;;;13.73;12.93;;;8.00;80.80;;;;;;5532181;26;20214;-82
2024/04/20 08:50:55;;;;;;;14.13;13.23;;;8.10;80.60;;;;;;5532004;26;20621;-82
2024/04/20 08:53:21;;;;;;;14.97;13.67;;;8.00;80.20;;;;;;5531880;26;20248;-83
2024/04/20 08:55:48;;;;;;;14.40;13.30;;;8.10;80.70;;;;;;5531919;26;20209;-83
2024/04/20 08:58:14;;;;;;;14.87;13.87;;;8.00;80.40;;;;;;5530963;26;20294;-88
2024/04/20 09:00:43;;;;;;;15.10;14.10;;;8.00;80.40;;;;;;5528901;26;20215;-88
2024/04/20 09:03:08;;;;;;;15.30;14.20;;;8.30;79.20;;;;;;5528062;26;20233;-88
2024/04/20 09:05:34;;;;;;;15.13;14.10;;;8.40;79.40;;;;;;5495228;26;20249;-89
2024/04/20 09:08:01;;;;;;;13.90;12.97;;;8.20;79.90;;;;;;5527475;26;20218;-87
2024/04/20 09:10:26;;;;;;;14.43;13.33;;;8.40;80.40;;;;;;5527949;26;20697;-86
2024/04/20 09:12:52;;;;;;;14.60;13.67;;;8.60;79.40;;;;;;5528098;26;20260;-89
2024/04/20 09:15:20;;;;;;;21.90;20.33;;;8.70;78.90;;;;;;5527401;26;20206;-89
2024/04/20 09:17:46;;;;;;;21.23;19.80;;;8.80;78.10;;;;;;5527314;26;20737;-89
2024/04/20 09:20:12;;;;;;;21.27;19.77;;;8.80;79.10;;;;;;5527291;26;20210;-89
2024/04/20 09:22:38;;;;;;;24.57;22.87;;;8.70;78.00;;;;;;5527167;26;20269;-91
2024/04/20 09:25:05;;;;;;;25.87;24.07;;;8.90;77.20;;;;;;5495259;26;20269;-90
2024/04/20 09:27:31;;;;;;;25.30;23.63;;;8.80;77.60;;;;;;5527846;26;20314;-89
2024/04/20 09:30:03;;;;;;;24.70;22.87;;;8.90;77.70;;;;;;5527774;26;20256;-88
2024/04/20 09:32:30;;;;;;;25.30;23.60;;;8.80;77.40;;;;;;5527725;26;20237;-90
2024/04/20 09:34:56;;;;;;;24.90;23.30;;;8.90;77.40;;;;;;5527346;26;20225;-88
2024/04/20 09:37:22;;;;;;;26.23;24.47;;;8.80;76.90;;;;;;5527137;26;20206;-89
2024/04/20 09:39:47;;;;;;;27.37;25.47;;;9.20;76.70;;;;;;5526454;26;20226;-90
2024/04/20 09:42:17;;;;;;;25.67;23.97;;;9.30;76.10;;;;;;5526882;26;20214;-90
2024/04/20 09:44:43;;;;;;;24.30;22.70;;;9.30;75.60;;;;;;5526552;26;20261;-89
2024/04/20 09:47:11;;;;;;;25.37;23.60;;;9.20;75.80;;;;;;5493747;26;20237;-90
2024/04/20 09:49:40;;;;;;;24.40;22.80;;;9.40;75.30;;;;;;5493826;26;20249;-90
2024/04/20 09:52:13;;;;;;;19.87;18.63;;;9.50;73.60;;;;;;5528884;26;20337;-90
2024/04/20 09:55:08;;;;;;;20.70;19.13;;;9.50;74.90;;;;;;5497219;26;20257;-90
2024/04/20 09:57:38;;;;;;;21.23;19.70;;;9.20;74.90;;;;;;5529914;26;20210;-90
2024/04/20 10:00:08;;;;;;;20.07;18.77;;;9.30;75.40;;;;;;5530216;26;20179;-90
2024/04/20 10:02:34;;;;;;;23.03;21.37;;;9.40;75.20;;;;;;5530099;26;20222;-90
2024/04/20 10:05:01;;;;;;;24.43;22.83;;;9.70;74.90;;;;;;5530061;26;20226;-86
2024/04/20 10:07:32;;;;;;;25.17;23.57;;;9.80;72.30;;;;;;5497933;26;20252;-88
2024/04/20 10:10:01;;;;;;;25.07;23.47;;;9.90;72.50;;;;;;5531113;26;20211;-87
2024/04/20 10:12:28;;;;;;;27.17;25.37;;;10.00;71.30;;;;;;5496908;26;20257;-89
2024/04/20 10:14:55;;;;;;;27.97;26.17;;;10.20;71.00;;;;;;5529652;26;20226;-88
2024/04/20 10:17:21;;;;;;;28.13;26.23;;;9.90;70.10;;;;;;5497093;26;20274;-87
2024/04/20 10:19:51;;;;;;;27.67;25.97;;;10.30;71.30;;;;;;5529910;26;20217;-88
2024/04/20 10:22:18;;;;;;;29.53;27.63;;;10.50;69.40;;;;;;5529916;26;20226;-87
2024/04/20 10:24:53;;;;;;;28.13;26.33;;;10.60;68.00;;;;;;5529531;26;20241;-88
2024/04/20 10:27:26;;;;;;;27.87;26.07;;;10.70;68.20;;;;;;5529765;26;20240;-89
2024/04/20 10:29:52;;;;;;;27.40;25.67;;;10.90;66.80;;;;;;5498834;26;20218;-87
2024/04/20 10:32:24;;;;;;;27.60;25.07;;;11.10;68.80;;;;;;5531253;26;20214;-88
2024/04/20 10:34:49;;;;;;;30.73;27.53;;;11.40;68.30;;;;;;5498795;26;20238;-88
2024/04/20 10:37:24;;;;;;;30.53;27.63;;;11.40;68.00;;;;;;5498912;26;20218;-88
2024/04/20 10:39:50;;;;;;;40.47;31.90;;;10.80;68.00;;;;;;5529658;26;20791;-87
2024/04/20 10:42:23;;;;;;;32.50;29.77;;;11.10;67.90;;;;;;5529419;26;20210;-87
2024/04/20 10:44:48;;;;;;;28.53;26.53;;;11.20;65.90;;;;;;5496648;26;20230;-87
2024/04/20 10:47:21;;;;;;;27.97;26.07;;;10.40;66.00;;;;;;5530382;26;20330;-87
2024/04/20 10:49:46;;;;;;;28.47;26.57;;;10.20;67.70;;;;;;5529194;26;20210;-87
2024/04/20 10:52:20;;;;;;;28.13;26.23;;;10.70;67.70;;;;;;5529016;26;20331;-88
2024/04/20 10:54:45;;;;;;;30.97;28.87;;;10.80;67.60;;;;;;5530204;26;20245;-88
2024/04/20 10:57:12;;;;;;;31.47;29.23;;;10.80;66.00;;;;;;5498040;26;20214;-89
2024/04/20 10:59:44;;;;;;;21.30;19.80;;;10.60;65.10;;;;;;5497330;26;20229;-89
2024/04/20 11:02:14;;;;;;;22.50;21.00;;;10.60;66.10;;;;;;5529342;26;20174;-88
2024/04/20 11:04:41;;;;;;;23.30;21.50;;;10.60;63.30;;;;;;5529197;26;20245;-85
2024/04/20 11:07:07;;;;;;;22.17;20.60;;;10.80;63.00;;;;;;5530257;26;20317;-87
2024/04/20 11:09:33;;;;;;;22.60;21.10;;;11.00;63.60;;;;;;5528919;26;20222;-89
2024/04/20 11:12:00;;;;;;;22.43;20.93;;;11.20;63.30;;;;;;5496089;26;20226;-88
2024/04/20 11:14:26;;;;;;;22.57;21.07;;;11.50;63.30;;;;;;5496117;26;20226;-88
2024/04/20 11:16:52;;;;;;;21.60;19.83;;;11.50;60.20;;;;;;5528674;26;20241;-88
2024/04/20 11:19:19;;;;;;;22.00;20.50;;;11.50;61.00;;;;;;5496076;26;20218;-89
2024/04/20 11:21:44;;;;;;;21.17;19.77;;;11.90;59.30;;;;;;5528847;26;20306;-89
2024/04/20 11:24:10;;;;;;;22.53;21.03;;;12.00;61.00;;;;;;5495899;26;20242;-89
2024/04/20 11:26:36;;;;;;;22.77;21.17;;;12.10;61.00;;;;;;5496063;26;20218;-88
2024/04/20 11:29:02;;;;;;;22.20;20.60;;;12.30;58.00;;;;;;5495991;26;20248;-88
2024/04/20 11:31:27;;;;;;;22.80;21.10;;;11.70;58.70;;;;;;5528881;26;20210;-88
2024/04/20 11:33:53;;;;;;;20.53;19.13;;;11.90;57.40;;;;;;5495940;26;20348;-89
2024/04/20 11:36:19;;;;;;;22.17;20.73;;;12.00;57.20;;;;;;5528677;26;20214;-88
2024/04/20 11:38:47;;;;;;;22.53;21.00;;;12.00;59.20;;;;;;5528324;26;20721;-89
2024/04/20 11:41:26;;;;;;;22.73;21.17;;;12.30;60.50;;;;;;5528528;26;20217;-88
2024/04/20 11:44:02;;;;;;;22.47;20.77;;;12.30;59.80;;;;;;5495590;26;20222;-88
2024/04/20 11:46:27;;;;;;;21.93;20.43;;;12.20;53.00;;;;;;5528703;26;20174;-87
2024/04/20 11:48:53;;;;;;;22.37;20.87;;;10.90;60.30;;;;;;5529184;26;20261;-88
2024/04/20 11:54:18;;;;;;;20.00;18.70;;;9.20;67.40;;;;;;5529471;26;20744;-87
2024/04/20 11:56:44;;;;;;;18.40;17.20;;;8.80;70.10;;;;;;5495606;26;20709;-88
2024/04/20 11:59:14;;;;;;;19.13;17.93;;;8.50;71.30;;;;;;5496362;26;20218;-92
2024/04/20 12:01:40;;;;;;;18.47;17.37;;;8.30;72.30;;;;;;5495516;26;20572;-86
2024/04/20 12:04:07;;;;;;;16.93;15.83;;;8.00;73.20;;;;;;5495437;26;20269;-89
2024/04/20 12:06:32;;;;;;;15.80;14.90;;;7.90;74.80;;;;;;5529238;26;20256;-91
2024/04/20 12:08:58;;;;;;;16.17;15.10;;;7.90;75.60;;;;;;5528105;26;20210;-87
2024/04/20 12:11:23;;;;;;;16.33;15.20;;;7.80;75.60;;;;;;5528132;26;20289;-88
2024/04/20 12:13:49;;;;;;;14.90;14.00;;;7.80;76.10;;;;;;5494152;26;20737;-87
2024/04/20 12:16:15;;;;;;;15.40;14.50;;;7.80;76.50;;;;;;5495659;26;20681;-88
2024/04/20 12:18:43;;;;;;;17.20;16.10;;;7.80;75.90;;;;;;5528190;26;20210;-88
2024/04/20 12:21:13;;;;;;;16.83;15.73;;;7.80;75.40;;;;;;5495509;26;20252;-88
2024/04/20 12:23:41;;;;;;;17.60;16.40;;;7.90;75.60;;;;;;5495584;26;20721;-88
2024/04/20 12:26:08;;;;;;;17.00;15.87;;;8.00;74.30;;;;;;5495630;26;20262;-87
2024/04/20 12:28:33;;;;;;;17.57;16.23;;;8.30;75.40;;;;;;5495476;26;20241;-88
2024/04/20 12:31:06;;;;;;;18.70;17.40;;;8.60;75.30;;;;;;5495295;26;20222;-88
2024/04/20 12:33:32;;;;;;;19.37;17.97;;;8.70;71.90;;;;;;5527640;26;20253;-87
2024/04/20 12:35:58;;;;;;;19.90;18.50;;;8.80;71.50;;;;;;5528062;26;20214;-88